createdAt,value
2023-03-28T00:01:24.780Z,4.87
2023-03-28T00:04:11.733Z,4.79
2023-03-28T00:06:57.540Z,4.74
2023-03-28T00:09:43.505Z,4.63
2023-03-28T00:12:29.553Z,4.62
2023-03-28T00:15:15.487Z,4.50
2023-03-28T00:18:01.581Z,4.47
2023-03-28T00:20:48.419Z,4.45
2023-03-28T00:23:35.955Z,4.41
2023-03-28T00:26:24.943Z,4.41
2023-03-28T00:29:21.401Z,4.37
2023-03-28T00:32:08.257Z,4.33
2023-03-28T00:34:54.029Z,4.37
2023-03-28T00:37:41.928Z,4.32
2023-03-28T00:40:30.887Z,4.25
2023-03-28T00:43:16.585Z,4.23
2023-03-28T00:46:09.127Z,4.21
2023-03-28T00:49:05.991Z,4.20
2023-03-28T00:52:01.946Z,4.19
2023-03-28T00:54:48.326Z,4.22
2023-03-28T00:57:38.356Z,4.24
2023-03-28T01:00:24.896Z,4.28
2023-03-28T01:03:13.945Z,4.30
2023-03-28T01:06:04.616Z,4.29
2023-03-28T01:08:56.747Z,4.32
2023-03-28T01:11:43.837Z,4.32
2023-03-28T01:14:32.899Z,4.33
2023-03-28T01:17:21.263Z,4.34
2023-03-28T01:20:10.524Z,4.35
2023-03-28T01:23:21.046Z,4.32
2023-03-28T01:26:34.719Z,4.25
2023-03-28T01:29:20.826Z,4.33
2023-03-28T01:32:28.922Z,4.31
2023-03-28T01:35:50.767Z,4.32
2023-03-28T01:38:51.693Z,4.33
2023-03-28T01:41:43.798Z,4.32
2023-03-28T01:44:43.920Z,4.32
2023-03-28T01:48:02.401Z,4.33
2023-03-28T01:50:54.245Z,4.34
2023-03-28T01:54:04.176Z,4.33
2023-03-28T01:57:31.514Z,4.33
2023-03-28T02:00:43.376Z,4.36
2023-03-28T02:03:35.133Z,4.36
2023-03-28T02:06:28.071Z,4.33
2023-03-28T02:09:17.921Z,4.25
2023-03-28T02:12:38.566Z,4.24
2023-03-28T02:15:27.719Z,4.26
2023-03-28T02:18:53.019Z,4.23
2023-03-28T02:21:52.328Z,4.24
2023-03-28T02:24:56.421Z,4.18
2023-03-28T02:28:09.515Z,4.16
2023-03-28T02:31:08.169Z,4.05
2023-03-28T02:34:01.805Z,4.01
2023-03-28T02:42:36.539Z,4.00
2023-03-28T02:51:30.274Z,3.94
2023-03-28T02:56:00.391Z,3.98
2023-03-28T03:00:40.945Z,3.94
2023-03-28T03:05:11.454Z,3.92
2023-03-28T03:08:31.658Z,3.88
2023-03-28T03:11:17.555Z,3.92
2023-03-28T03:14:05.629Z,3.92
2023-03-28T03:17:34.693Z,3.94
2023-03-28T03:34:15.844Z,4.01
2023-03-28T03:38:47.443Z,4.01
2023-03-28T03:51:55.396Z,4.02
2023-03-28T03:54:41.380Z,4.07
2023-03-28T03:57:27.274Z,4.15
2023-03-28T04:19:54.080Z,4.02
2023-03-28T04:28:17.463Z,4.00
2023-03-28T04:57:08.155Z,3.83
2023-03-28T05:00:00.061Z,3.89
2023-03-28T05:03:05.192Z,3.95
2023-03-28T05:10:28.579Z,4.00
2023-03-28T05:13:21.180Z,4.05
2023-03-28T05:29:56.086Z,4.26
2023-03-28T05:32:42.163Z,4.34
2023-03-28T05:35:30.504Z,4.43
2023-03-28T05:48:55.259Z,4.33
2023-03-28T05:53:24.339Z,4.25
2023-03-28T05:57:54.326Z,4.22
2023-03-28T06:00:46.709Z,4.23
2023-03-28T06:03:33.098Z,4.23
2023-03-28T06:06:24.606Z,4.20
2023-03-28T06:13:56.900Z,4.16
2023-03-28T06:16:42.501Z,4.19
2023-03-28T06:19:28.195Z,4.19
2023-03-28T06:27:00.006Z,4.22
2023-03-28T06:29:45.958Z,4.27
2023-03-28T06:41:52.720Z,4.51
2023-03-28T06:44:47.923Z,4.58
2023-03-28T06:47:52.396Z,4.67
2023-03-28T06:50:50.281Z,4.64
2023-03-28T06:53:49.908Z,4.63
2023-03-28T06:56:40.632Z,4.69
2023-03-28T06:59:26.950Z,4.67
2023-03-28T07:02:49.748Z,4.67
2023-03-28T07:05:42.804Z,4.70
2023-03-28T07:09:44.750Z,4.64
2023-03-28T07:12:31.893Z,4.61
2023-03-28T07:15:19.446Z,4.58
2023-03-28T07:19:11.435Z,4.61
2023-03-28T07:22:01.020Z,4.66
2023-03-28T07:24:46.851Z,4.61
2023-03-28T07:27:33.303Z,4.63
2023-03-28T07:30:20.010Z,4.62
2023-03-28T07:33:18.581Z,4.50
2023-03-28T07:36:15.076Z,4.56
2023-03-28T07:39:03.284Z,4.59
2023-03-28T07:41:49.376Z,4.64
2023-03-28T07:44:36.067Z,4.68
2023-03-28T07:47:22.852Z,4.76
2023-03-28T07:50:09.526Z,4.82
2023-03-28T07:52:57.920Z,4.87
2023-03-28T07:55:54.489Z,4.93
2023-03-28T07:59:22.152Z,5.00
2023-03-28T08:02:15.937Z,5.11
2023-03-28T08:05:01.938Z,5.21
2023-03-28T08:07:47.701Z,5.27
2023-03-28T08:10:34.219Z,5.33
2023-03-28T08:13:22.637Z,5.38
2023-03-28T08:16:09.586Z,5.38
2023-03-28T08:19:07.550Z,5.42
2023-03-28T08:22:34.548Z,5.36
2023-03-28T08:26:04.908Z,5.44
2023-03-28T08:28:54.830Z,5.41
2023-03-28T08:31:41.661Z,5.38
2023-03-28T08:34:32.370Z,5.48
2023-03-28T08:37:21.909Z,5.53
2023-03-28T08:40:16.202Z,5.50
2023-03-28T08:43:06.598Z,5.55
2023-03-28T08:45:56.569Z,5.63
2023-03-28T08:48:44.737Z,5.73
2023-03-28T08:51:40.776Z,5.78
2023-03-28T08:55:10.957Z,5.82
2023-03-28T08:57:57.944Z,5.96
2023-03-28T09:00:43.481Z,6.02
2023-03-28T09:03:30.360Z,6.13
2023-03-28T09:06:28.723Z,6.26
2023-03-28T09:09:34.625Z,6.42
2023-03-28T09:12:59.744Z,6.60
2023-03-28T09:16:23.233Z,6.68
2023-03-28T09:19:49.127Z,6.77
2023-03-28T09:23:39.420Z,6.99
2023-03-28T09:27:21.818Z,7.16
2023-03-28T09:30:20.790Z,7.39
2023-03-28T09:33:12.714Z,7.56
2023-03-28T09:35:59.144Z,7.66
2023-03-28T09:38:52.624Z,7.77
2023-03-28T09:42:27.392Z,7.74
2023-03-28T09:46:05.224Z,7.66
2023-03-28T09:49:18.210Z,7.65
2023-03-28T09:52:18.813Z,7.72
2023-03-28T10:06:02.086Z,7.52
2023-03-28T10:08:52.377Z,7.56
2023-03-28T10:11:58.677Z,7.57
2023-03-28T10:14:53.041Z,7.54
2023-03-28T10:18:20.370Z,7.54
2023-03-28T10:21:23.987Z,7.53
2023-03-28T10:24:28.622Z,7.56
2023-03-28T10:27:24.034Z,7.53
2023-03-28T10:30:21.668Z,7.53
2023-03-28T10:33:44.044Z,7.65
2023-03-28T10:36:58.555Z,7.83
2023-03-28T10:40:07.656Z,7.96
2023-03-28T10:43:15.963Z,8.31
2023-03-28T10:46:33.292Z,8.73
2023-03-28T10:49:43.454Z,9.12
2023-03-28T10:52:52.091Z,9.34
2023-03-28T10:55:54.344Z,9.43
2023-03-28T10:59:17.851Z,9.41
2023-03-28T11:02:24.122Z,9.35
2023-03-28T11:05:28.803Z,9.14
2023-03-28T11:08:38.344Z,9.03
2023-03-28T11:11:41.221Z,8.95
2023-03-28T11:14:46.508Z,9.04
2023-03-28T11:17:41.669Z,9.24
2023-03-28T11:20:56.405Z,9.85
2023-03-28T11:24:02.414Z,11.02
2023-03-28T11:27:22.720Z,11.19
2023-03-28T11:30:24.653Z,10.76
2023-03-28T11:33:32.166Z,10.17
2023-03-28T11:36:29.619Z,9.65
2023-03-28T11:39:42.665Z,9.26
2023-03-28T11:42:37.225Z,8.89
2023-03-28T11:45:43.309Z,8.54
2023-03-28T11:48:49.731Z,8.52
2023-03-28T11:51:53.964Z,9.82
2023-03-28T11:54:44.183Z,11.66
2023-03-28T11:58:00.403Z,13.54
2023-03-28T12:01:00.410Z,14.98
2023-03-28T12:03:55.780Z,14.77
2023-03-28T12:06:59.714Z,13.80
2023-03-28T12:10:08.234Z,12.66
2023-03-28T12:13:08.390Z,11.71
2023-03-28T12:16:04.648Z,10.73
2023-03-28T12:19:06.313Z,9.82
2023-03-28T12:22:18.106Z,9.17
2023-03-28T12:25:10.696Z,9.73
2023-03-28T12:28:23.214Z,10.87
2023-03-28T12:31:31.825Z,12.47
2023-03-28T12:34:39.357Z,13.84
2023-03-28T12:37:48.594Z,14.66
2023-03-28T12:41:04.593Z,15.61
2023-03-28T12:43:57.411Z,15.22
2023-03-28T12:47:11.765Z,14.71
2023-03-28T12:50:08.651Z,14.32
2023-03-28T12:52:56.712Z,14.61
2023-03-28T12:55:52.279Z,15.24
2023-03-28T12:58:43.142Z,16.21
2023-03-28T13:01:48.441Z,17.21
2023-03-28T13:05:16.246Z,17.92
2023-03-28T13:08:25.088Z,18.84
2023-03-28T13:11:17.086Z,19.46
2023-03-28T13:14:12.229Z,20.02
2023-03-28T13:17:25.520Z,19.97
2023-03-28T13:20:17.609Z,19.19
2023-03-28T13:23:07.370Z,17.92
2023-03-28T13:25:55.466Z,16.59
2023-03-28T13:28:44.541Z,15.11
2023-03-28T13:31:32.949Z,13.74
2023-03-28T13:34:23.832Z,12.79
2023-03-28T13:37:41.912Z,12.03
2023-03-28T13:40:51.347Z,12.34
2023-03-28T13:43:43.695Z,13.21
2023-03-28T13:46:39.046Z,14.35
2023-03-28T13:49:30.985Z,15.14
2023-03-28T13:52:20.332Z,14.98
2023-03-28T13:55:24.761Z,14.37
2023-03-28T13:58:13.947Z,13.65
2023-03-28T14:01:09.384Z,13.95
2023-03-28T14:03:56.457Z,15.04
2023-03-28T14:06:42.463Z,16.40
2023-03-28T14:09:28.481Z,17.74
2023-03-28T14:12:14.906Z,18.61
2023-03-28T14:15:01.577Z,18.79
2023-03-28T14:17:50.093Z,17.97
2023-03-28T14:20:38.345Z,16.73
2023-03-28T14:23:32.098Z,15.10
2023-03-28T14:26:22.634Z,13.58
2023-03-28T14:29:14.957Z,12.39
2023-03-28T14:32:02.150Z,11.65
2023-03-28T14:34:48.036Z,11.94
2023-03-28T14:37:33.817Z,12.93
2023-03-28T14:40:41.195Z,14.19
2023-03-28T14:43:29.344Z,15.44
2023-03-28T14:46:15.607Z,16.30
2023-03-28T14:49:03.841Z,16.67
2023-03-28T14:51:58.453Z,16.41
2023-03-28T14:54:48.261Z,15.65
2023-03-28T14:57:37.783Z,14.58
2023-03-28T15:00:30.117Z,13.53
2023-03-28T15:03:17.976Z,12.63
2023-03-28T15:06:04.075Z,11.88
2023-03-28T15:08:50.747Z,11.24
2023-03-28T15:11:38.097Z,10.76
2023-03-28T15:14:41.352Z,10.29
2023-03-28T15:17:26.988Z,9.90
2023-03-28T15:20:17.201Z,9.56
2023-03-28T15:23:11.802Z,9.17
2023-03-28T15:26:01.988Z,8.80
2023-03-28T15:28:48.979Z,8.44
2023-03-28T15:31:38.827Z,8.08
2023-03-28T15:34:27.565Z,7.90
2023-03-28T15:37:21.868Z,7.73
2023-03-28T15:40:29.328Z,7.60
2023-03-28T15:43:27.305Z,7.54
2023-03-28T15:46:14.326Z,7.55
2023-03-28T15:49:01.409Z,7.58
2023-03-28T15:51:56.540Z,7.67
2023-03-28T15:54:44.058Z,7.77
2023-03-28T15:57:30.896Z,7.81
2023-03-28T16:00:38.366Z,8.02
2023-03-28T16:03:24.108Z,8.32
2023-03-28T16:06:31.624Z,8.54
2023-03-28T16:09:23.474Z,8.62
2023-03-28T16:12:13.344Z,8.57
2023-03-28T16:15:03.279Z,8.50
2023-03-28T16:18:00.537Z,8.45
2023-03-28T16:20:56.607Z,8.40
2023-03-28T16:23:42.611Z,8.37
2023-03-28T16:26:28.525Z,8.32
2023-03-28T16:29:14.335Z,8.27
2023-03-28T16:32:00.319Z,8.19
2023-03-28T16:34:46.240Z,8.18
2023-03-28T16:37:32.224Z,8.13
2023-03-28T16:40:18.376Z,8.03
2023-03-28T16:43:04.173Z,7.87
2023-03-28T16:45:50.486Z,7.67
2023-03-28T16:48:36.564Z,7.38
2023-03-28T16:51:22.383Z,7.11
2023-03-28T16:54:10.178Z,6.87
2023-03-28T16:56:56.342Z,6.66
2023-03-28T16:59:42.294Z,6.40
2023-03-28T17:02:28.404Z,6.07
2023-03-28T17:05:15.641Z,5.89
2023-03-28T17:08:02.192Z,5.67
2023-03-28T17:10:48.094Z,5.36
2023-03-28T17:13:34.628Z,5.08
2023-03-28T17:16:21.771Z,4.90
2023-03-28T17:19:07.908Z,4.81
2023-03-28T17:21:55.698Z,4.72
2023-03-28T17:24:41.764Z,4.66
2023-03-28T17:27:27.843Z,4.59
2023-03-28T17:30:13.816Z,4.51
2023-03-28T17:32:59.886Z,4.45
2023-03-28T17:35:46.092Z,4.42
2023-03-28T17:38:32.441Z,4.39
2023-03-28T17:41:18.860Z,4.32
2023-03-28T17:44:06.605Z,4.25
2023-03-28T17:46:54.412Z,4.21
2023-03-28T17:49:40.775Z,4.20
2023-03-28T17:52:29.937Z,4.18
2023-03-28T17:55:16.108Z,4.20
2023-03-28T17:58:02.676Z,4.21
2023-03-28T18:00:48.703Z,4.24
2023-03-28T18:03:34.545Z,4.29
2023-03-28T18:06:38.023Z,4.32
2023-03-28T18:09:23.815Z,4.31
2023-03-28T18:12:09.643Z,4.16
2023-03-28T18:14:58.918Z,4.07
2023-03-28T18:17:47.478Z,3.90
2023-03-28T18:20:33.388Z,3.94
2023-03-28T18:23:19.170Z,3.86
2023-03-28T18:26:05.349Z,3.82
2023-03-28T18:28:51.194Z,3.75
2023-03-28T18:31:39.033Z,3.66
2023-03-28T18:34:24.970Z,3.57
2023-03-28T18:37:12.322Z,3.57
2023-03-28T18:39:58.036Z,3.51
2023-03-28T18:42:43.722Z,3.52
2023-03-28T18:45:29.527Z,3.57
2023-03-28T18:48:18.537Z,3.55
2023-03-28T18:51:06.372Z,3.55
2023-03-28T18:53:53.994Z,3.56
2023-03-28T18:56:40.205Z,3.56
2023-03-28T18:59:26.477Z,3.57
2023-03-28T19:02:14.002Z,3.57
2023-03-28T19:05:00.478Z,3.56
2023-03-28T19:07:46.408Z,3.54
2023-03-28T19:10:32.040Z,3.60
2023-03-28T19:13:17.901Z,3.59
2023-03-28T19:16:07.165Z,3.66
2023-03-28T19:18:52.789Z,3.71
2023-03-28T19:21:38.665Z,3.72
2023-03-28T19:24:24.305Z,3.73
2023-03-28T19:27:10.032Z,3.73
2023-03-28T19:29:57.056Z,3.77
2023-03-28T19:32:42.960Z,3.75
2023-03-28T19:35:28.740Z,3.75
2023-03-28T19:38:14.699Z,3.84
2023-03-28T19:41:02.153Z,3.84
2023-03-28T19:43:49.282Z,3.82
2023-03-28T19:46:37.157Z,3.78
2023-03-28T19:49:24.644Z,3.79
2023-03-28T19:52:11.086Z,3.81
2023-03-28T19:54:56.872Z,3.84
2023-03-28T19:57:42.631Z,3.86
2023-03-28T20:00:28.442Z,3.88
2023-03-28T20:03:14.433Z,3.92
2023-03-28T20:06:20.763Z,3.93
2023-03-28T20:09:07.628Z,3.98
2023-03-28T20:11:53.971Z,3.99
2023-03-28T20:14:39.671Z,4.05
2023-03-28T20:17:25.291Z,4.11
2023-03-28T20:20:13.671Z,4.12
2023-03-28T20:23:00.392Z,4.16
2023-03-28T20:25:47.671Z,4.17
2023-03-28T20:28:33.925Z,4.16
2023-03-28T20:31:19.662Z,4.15
2023-03-28T20:34:05.920Z,4.15
2023-03-28T20:36:52.162Z,4.13
2023-03-28T20:39:38.614Z,4.14
2023-03-28T20:42:30.120Z,4.11
2023-03-28T20:45:22.272Z,4.08
2023-03-28T20:48:11.112Z,4.06
2023-03-28T20:50:57.285Z,4.04
2023-03-28T20:53:45.295Z,4.01
2023-03-28T20:56:31.890Z,3.99
2023-03-28T20:59:17.869Z,3.95
2023-03-28T21:02:05.251Z,3.97
2023-03-28T21:04:51.946Z,3.93
2023-03-28T21:07:37.665Z,3.92
2023-03-28T21:10:23.388Z,3.84
2023-03-28T21:13:09.185Z,3.83
2023-03-28T21:15:55.525Z,3.81
2023-03-28T21:18:41.611Z,3.77
2023-03-28T21:21:30.467Z,3.76
2023-03-28T21:24:17.863Z,3.76
2023-03-28T21:27:03.599Z,3.75
2023-03-28T21:29:49.288Z,3.78
2023-03-28T21:32:35.988Z,3.81
2023-03-28T21:35:22.340Z,3.84
2023-03-28T21:38:08.033Z,3.83
2023-03-28T21:40:53.753Z,3.84
2023-03-28T21:43:40.239Z,3.86
2023-03-28T21:46:26.539Z,3.86
2023-03-28T21:49:12.691Z,3.88
2023-03-28T21:51:58.498Z,3.90
2023-03-28T21:54:44.576Z,3.93
2023-03-28T21:57:31.250Z,3.97
2023-03-28T22:00:20.650Z,3.99
2023-03-28T22:03:06.610Z,4.05
2023-03-28T22:05:53.452Z,4.11
2023-03-28T22:08:40.582Z,4.14
2023-03-28T22:11:28.250Z,4.19
2023-03-28T22:14:14.265Z,4.20
2023-03-28T22:17:02.868Z,4.23
2023-03-28T22:19:50.039Z,4.27
2023-03-28T22:22:36.194Z,4.23
2023-03-28T22:25:24.725Z,4.21
2023-03-28T22:28:13.101Z,4.16
2023-03-28T22:30:59.048Z,4.20
2023-03-28T22:33:45.284Z,4.21
2023-03-28T22:36:31.405Z,4.19
2023-03-28T22:39:21.748Z,4.19
2023-03-28T22:42:08.623Z,4.14
2023-03-28T22:44:54.338Z,4.17
2023-03-28T22:47:40.220Z,4.12
2023-03-28T22:50:27.730Z,4.11
2023-03-28T22:53:14.627Z,4.04
2023-03-28T22:56:00.815Z,4.01
2023-03-28T22:58:47.135Z,3.95
2023-03-28T23:01:33.820Z,4.00
2023-03-28T23:04:19.560Z,4.01
2023-03-28T23:07:06.647Z,4.00
2023-03-28T23:09:52.433Z,4.01
2023-03-28T23:12:38.612Z,4.06
2023-03-28T23:15:24.640Z,4.09
2023-03-28T23:18:10.893Z,4.12
2023-03-28T23:20:57.488Z,4.11
2023-03-28T23:23:43.809Z,4.09
2023-03-28T23:26:29.493Z,4.09
2023-03-28T23:29:15.400Z,4.09
2023-03-28T23:32:01.045Z,4.11
2023-03-28T23:34:46.826Z,4.04
2023-03-28T23:37:34.523Z,4.02
2023-03-28T23:40:20.857Z,3.98
2023-03-28T23:43:07.359Z,3.93
2023-03-28T23:45:53.409Z,3.91
2023-03-28T23:48:39.144Z,3.89
2023-03-28T23:51:24.890Z,3.87
2023-03-28T23:54:12.601Z,3.76
2023-03-28T23:56:58.266Z,3.78
2023-03-28T23:59:43.916Z,3.75
